Latest Coastal Weather Observations for Bougainville Reef

IDQ60701

Issued at 9:52 am EST Thursday 29 September 2016 (issued every 10 minutes, with the page automatically refreshed every 10 minutes)

About coastal observations | Map of coastal stations | Coastal observations for QLD | Marine services | Other Formats
Station Details ID: 200840 Name: BOUGAINVILLE REEF Lat: -15.49 Lon: 147.12 Height: 0.0 m
Data from the previous 72 hours. | See also: Recent months for locations in Queensland
Date/Time
EST
Temp
°C
Wind Pressure Rain since
9am
mm
Weather Cloud Vis
km
Sea
Height
m
Swell
Dir  Spd
kts
Gust
kts
hPa Trend Height
m
Period
s
Dir
29/09:30am 26.0 ENE 11 13 1011.4 - - - - - - - - -
29/09:00am 26.2 ENE 10 13 1011.6 - - - - - - - - -
29/08:30am 26.2 ENE 10 12 1011.8 - - - - - - - - -
29/08:00am 26.3 ENE 9 11 1011.7 - - - - - - - - -
29/07:30am 26.1 ENE 9 11 1011.8 - - - - - - - - -
29/07:00am 26.0 ENE 10 12 1011.1 - - - - - - - - -
29/06:30am 25.7 ENE 11 14 1010.9 - - - - - - - - -
29/06:00am 25.6 ENE 11 12 1010.4 - - - - - - - - -
29/05:30am 25.6 E 9 11 1010.5 - - - - - - - - -
29/05:00am 25.5 ENE 9 11 1010.0 - - - - - - - - -
29/04:30am 25.6 ENE 10 11 1010.0 - - - - - - - - -
29/04:00am 25.6 E 10 11 1009.9 - - - - - - - - -
29/03:30am 25.6 ENE 11 12 1009.7 - - - - - - - - -
29/03:00am 25.6 E 10 12 1010.0 - - - - - - - - -
29/02:30am 25.6 E 10 14 1010.3 - - - - - - - - -
29/02:00am 25.5 E 11 14 1010.4 - - - - - - - - -
29/01:30am 25.7 ESE 12 13 1010.7 - - - - - - - - -
29/01:00am 25.7 E 12 14 1011.3 - - - - - - - - -
29/12:30am 25.9 E 13 15 1011.6 - - - - - - - - -
29/12:00am 25.9 ENE 14 15 1011.9 - - - - - - - - -
 
Date/Time
EST
Temp
°C
Wind Pressure Rain since
9am
mm
Weather Cloud Vis
km
Sea
Height
m
Swell
Dir  Spd
kts
Gust
kts
hPa Trend Height
m
Period
s
Dir
28/11:30pm 26.1 E 14 16 1012.1 - - - - - - - - -
28/11:00pm 26.1 E 15 17 1012.1 - - - - - - - - -
28/10:30pm 26.1 E 15 17 1012.3 - - - - - - - - -
28/10:00pm 26.0 ESE 14 17 1012.2 - - - - - - - - -
28/09:30pm 25.9 ESE 14 16 1012.2 - - - - - - - - -
28/09:00pm 26.1 ESE 13 16 1011.7 - - - - - - - - -
28/08:30pm 26.1 ESE 14 16 1011.6 - - - - - - - - -
28/08:00pm 26.1 SE 14 15 1011.1 - - - - - - - - -
28/07:30pm 26.3 SE 13 15 1011.0 - - - - - - - - -
28/07:00pm 26.1 SE 11 14 1010.8 - - - - - - - - -
28/06:30pm 26.3 ESE 12 14 1010.9 - - - - - - - - -
28/06:00pm 26.2 ESE 11 13 1010.5 - - - - - - - - -
28/05:30pm 26.3 SE 11 14 1010.3 - - - - - - - - -
28/05:00pm 26.2 ESE 10 12 1009.9 - - - - - - - - -
28/04:30pm 26.2 ESE 9 11 1009.9 - - - - - - - - -
28/04:00pm 26.3 E 9 11 1009.9 - - - - - - - - -
28/03:30pm 26.0 E 9 11 1009.8 - - - - - - - - -
28/03:00pm 26.3 E 9 11 1009.9 - - - - - - - - -
28/02:30pm 26.3 E 8 10 1010.4 - - - - - - - - -
28/02:00pm 26.1 E 9 11 1010.6 - - - - - - - - -
28/01:30pm 26.2 ESE 9 11 1011.1 - - - - - - - - -
28/01:00pm 26.1 ESE 9 11 1011.6 - - - - - - - - -
28/12:30pm 26.1 ESE 9 10 1012.0 - - - - - - - - -
28/12:00pm 26.1 E 8 9 1012.5 - - - - - - - - -
28/11:30am 26.1 E 7 9 1012.9 - - - - - - - - -
28/11:00am 26.0 ENE 9 9 1013.0 - - - - - - - - -
28/10:30am 26.0 ENE 8 9 1013.3 - - - - - - - - -
28/10:00am 26.3 ENE 8 10 1013.7 - - - - - - - - -
28/09:30am 26.2 E 9 11 1014.0 - - - - - - - - -
28/09:00am 26.3 E 11 13 1013.7 - - - - - - - - -
28/08:30am 26.4 E 10 12 1013.6 - - - - - - - - -
28/08:00am 26.0 ESE 11 11 1013.2 - - - - - - - - -
28/07:30am 25.9 E 10 12 1012.8 - - - - - - - - -
28/07:00am 26.0 ENE 13 15 1011.7 - - - - - - - - -
28/06:30am 25.9 ENE 13 15 1011.7 - - - - - - - - -
28/06:00am 25.9 E 13 15 1011.2 - - - - - - - - -
28/05:30am 25.8 E 14 15 1011.4 - - - - - - - - -
28/05:00am 25.7 E 14 17 1010.9 - - - - - - - - -
28/04:30am 25.8 E 15 18 1010.9 - - - - - - - - -
28/04:00am 25.7 E 16 17 1010.7 - - - - - - - - -
28/03:30am 25.9 E 15 17 1010.7 - - - - - - - - -
28/03:00am 25.6 ESE 16 18 1010.6 - - - - - - - - -
28/02:30am 25.8 ESE 16 19 1010.9 - - - - - - - - -
28/02:00am 25.8 ESE 16 19 1011.2 - - - - - - - - -
28/01:30am 25.9 ESE 16 19 1011.5 - - - - - - - - -
28/01:00am 25.9 E 17 20 1011.8 - - - - - - - - -
28/12:30am 25.8 E 17 19 1011.9 - - - - - - - - -
28/12:00am 25.9 E 19 21 1012.2 - - - - - - - - -
 
Date/Time
EST
Temp
°C
Wind Pressure Rain since
9am
mm
Weather Cloud Vis
km
Sea
Height
m
Swell
Dir  Spd
kts
Gust
kts
hPa Trend Height
m
Period
s
Dir
27/11:30pm 25.9 E 19 22 1012.5 - - - - - - - - -
27/11:00pm 25.9 E 20 23 1012.3 - - - - - - - - -
27/10:30pm 26.0 E 20 22 1012.4 - - - - - - - - -
27/10:00pm 26.0 ESE 20 23 1012.4 - - - - - - - - -
27/09:30pm 26.1 ESE 20 23 1012.6 - - - - - - - - -
27/09:00pm 26.0 ESE 20 23 1012.1 - - - - - - - - -
27/08:30pm 26.1 ESE 19 22 1012.2 - - - - - - - - -
27/08:00pm 26.1 ESE 19 23 1012.1 - - - - - - - - -
27/07:30pm 26.1 ESE 18 20 1012.0 - - - - - - - - -
27/07:00pm 26.1 ESE 18 20 1011.4 - - - - - - - - -
27/06:30pm 26.0 SE 18 20 1011.5 - - - - - - - - -
27/06:00pm 26.0 SE 16 19 1011.0 - - - - - - - - -
27/05:30pm 26.0 SE 16 18 1010.7 - - - - - - - - -
27/05:00pm 26.0 SE 13 15 1010.1 - - - - - - - - -
27/04:30pm 26.1 SE 13 14 1010.1 - - - - - - - - -
27/04:00pm 26.0 SE 13 15 1010.0 - - - - - - - - -
27/03:30pm 26.1 SE 13 15 1010.0 - - - - - - - - -
27/03:00pm 25.9 SE 13 15 1010.1 - - - - - - - - -
27/02:30pm 26.1 SE 13 14 1010.5 - - - - - - - - -
27/02:00pm 26.0 SE 13 15 1010.8 - - - - - - - - -
27/01:30pm 26.0 SE 13 15 1011.1 - - - - - - - - -
27/01:00pm 26.2 SE 11 13 1011.5 - - - - - - - - -
27/12:30pm 26.1 SE 11 13 1012.1 - - - - - - - - -
27/12:00pm 26.0 SE 12 14 1012.7 - - - - - - - - -
27/11:30am 25.9 SE 12 14 1013.1 - - - - - - - - -
27/11:00am 25.8 SE 13 15 1013.6 - - - - - - - - -
27/10:30am 26.0 ESE 11 13 1013.7 - - - - - - - - -
27/10:00am 26.0 ESE 11 13 1014.0 - - - - - - - - -
27/09:30am 26.1 SE 11 12 1014.3 - - - - - - - - -
27/09:00am 26.1 SE 10 11 1014.2 - - - - - - - - -
27/08:30am 26.1 SE 10 13 1014.2 - - - - - - - - -
27/08:00am 26.0 SE 11 12 1013.7 - - - - - - - - -
27/07:30am 26.0 SE 11 12 1013.6 - - - - - - - - -
27/07:00am 25.9 ESE 11 13 1012.9 - - - - - - - - -
27/06:30am 25.9 SE 11 12 1012.8 - - - - - - - - -
27/06:00am 25.7 E 10 11 1011.9 - - - - - - - - -
27/05:30am 25.8 E 11 12 1011.8 - - - - - - - - -
27/05:00am 25.9 E 11 11 1011.4 - - - - - - - - -
27/04:30am 25.7 E 10 11 1011.3 - - - - - - - - -
27/04:00am 25.7 E 12 14 1010.8 - - - - - - - - -
27/03:30am 25.8 ENE 13 14 1010.8 - - - - - - - - -
27/03:00am 25.8 ENE 15 16 1010.9 - - - - - - - - -
27/02:30am 25.7 ENE 14 16 1011.3 - - - - - - - - -
27/02:00am 26.0 ENE 14 16 1011.6 - - - - - - - - -
27/01:30am 26.0 ENE 13 14 1012.0 - - - - - - - - -
27/01:00am 26.0 ENE 14 15 1012.4 - - - - - - - - -
27/12:30am 26.0 E 14 17 1012.5 - - - - - - - - -
27/12:00am 26.1 E 14 15 1012.8 - - - - - - - - -
 
Date/Time
EST
Temp
°C
Wind Pressure Rain since
9am
mm
Weather Cloud Vis
km
Sea
Height
m
Swell
Dir  Spd
kts
Gust
kts
hPa Trend Height
m
Period
s
Dir
26/11:30pm 26.0 E 14 16 1013.0 - - - - - - - - -
26/11:00pm 26.1 E 14 16 1013.1 - - - - - - - - -
26/10:30pm 26.2 E 13 15 1013.4 - - - - - - - - -
26/10:00pm 26.1 E 12 14 1013.3 - - - - - - - - -
26/09:30pm 26.1 ESE 12 13 1013.4 - - - - - - - - -
26/09:00pm 26.2 E 12 14 1012.9 - - - - - - - - -
26/08:30pm 26.3 ESE 13 15 1012.8 - - - - - - - - -
26/08:00pm 26.2 ESE 13 14 1012.0 - - - - - - - - -
26/07:30pm 26.2 ESE 12 14 1012.1 - - - - - - - - -
26/07:00pm 26.2 SE 11 13 1012.0 - - - - - - - - -
26/06:30pm 26.2 ESE 10 11 1011.8 - - - - - - - - -
26/06:00pm 26.0 ESE 9 11 1011.2 - - - - - - - - -
26/05:30pm 26.1 ESE 9 11 1011.1 - - - - - - - - -
26/05:00pm 26.1 ESE 9 11 1010.5 - - - - - - - - -
26/04:30pm 26.2 SE 9 11 1010.4 - - - - - - - - -
26/04:00pm 26.2 SE 10 11 1010.2 - - - - - - - - -
26/03:30pm 26.2 SE 10 12 1010.2 - - - - - - - - -
26/03:00pm 26.2 SE 10 11 1010.3 - - - - - - - - -
26/02:30pm 26.2 SE 10 11 1010.6 - - - - - - - - -
26/02:00pm 26.1 SE 10 12 1010.6 - - - - - - - - -
26/01:30pm 26.0 SE 10 12 1010.8 - - - - - - - - -
26/01:00pm 26.0 SE 9 11 1011.2 - - - - - - - - -
26/12:30pm 26.2 SE 10 11 1011.6 - - - - - - - - -
26/12:00pm 26.1 SE 9 11 1012.1 - - - - - - - - -
26/11:30am 26.0 SE 9 11 1012.5 - - - - - - - - -
26/11:00am 26.2 SE 8 10 1012.8 - - - - - - - - -
26/10:30am 26.1 SE 9 10 1013.0 - - - - - - - - -
26/10:00am 26.1 SE 8 9 1013.0 - - - - - - - - -

Other Formats:

Comma delimited format used in spreadsheet applications
http://www.bom.gov.au/fwo/IDQ60701/IDQ60701.95288.axf

JavaScript Object Notation format (JSON) in row-major order
http://www.bom.gov.au/fwo/IDQ60701/IDQ60701.95288.json